createdAt,value
2024-05-09T07:11:25.280Z,14.42
2024-05-09T07:13:33.144Z,14.57
2024-05-09T07:14:36.144Z,14.57
2024-05-09T07:15:39.970Z,14.64
2024-05-09T07:16:41.580Z,14.81
2024-05-09T07:17:43.341Z,14.87
2024-05-09T07:18:45.312Z,15.05
2024-05-09T07:19:47.050Z,15.03
2024-05-09T07:20:50.111Z,14.98
2024-05-09T07:21:52.224Z,15.09
2024-05-09T07:22:53.783Z,15.24
2024-05-09T07:23:55.400Z,15.13
2024-05-09T07:24:56.983Z,15.27
2024-05-09T07:25:58.721Z,15.36
2024-05-09T07:27:00.284Z,15.55
2024-05-09T07:28:01.863Z,15.67
2024-05-09T07:29:03.398Z,15.60
2024-05-09T07:30:07.143Z,15.71
2024-05-09T07:31:09.557Z,15.65
2024-05-09T07:32:11.177Z,15.76
2024-05-09T07:33:17.887Z,15.93
2024-05-09T07:34:19.905Z,16.14
2024-05-09T07:35:22.544Z,16.14
2024-05-09T07:36:24.374Z,16.18
2024-05-09T07:37:26.005Z,16.25
2024-05-09T07:38:27.645Z,16.06
2024-05-09T07:39:29.466Z,16.30
2024-05-09T07:40:35.993Z,16.14
2024-05-09T07:41:38.639Z,16.25
2024-05-09T07:42:40.316Z,16.12
2024-05-09T07:43:41.847Z,16.03
2024-05-09T07:44:43.380Z,16.06
2024-05-09T07:45:52.232Z,16.07
2024-05-09T07:54:28.703Z,16.74
2024-05-09T07:55:30.694Z,16.75
2024-05-09T07:58:34.125Z,16.54
2024-05-09T07:59:37.809Z,16.77
2024-05-09T08:02:39.287Z,16.91
2024-05-09T08:03:41.092Z,16.97
2024-05-09T08:06:27.407Z,17.06
2024-05-09T08:07:29.381Z,16.94
2024-05-09T08:10:15.320Z,17.02
2024-05-09T08:13:08.773Z,16.39
2024-05-09T08:15:59.564Z,17.00
2024-05-09T08:17:01.175Z,17.15
2024-05-09T08:19:40.708Z,16.65
2024-05-09T08:20:42.909Z,17.18
2024-05-09T08:23:19.461Z,17.48
2024-05-09T08:24:20.967Z,17.43
2024-05-09T08:26:57.596Z,17.26
2024-05-09T08:29:44.670Z,17.31
2024-05-09T08:32:32.289Z,17.61
2024-05-09T08:35:17.341Z,17.57
2024-05-09T08:37:58.795Z,17.68
2024-05-09T08:40:41.743Z,16.64
2024-05-09T08:41:48.799Z,17.14
2024-05-09T08:44:14.936Z,17.32
2024-05-09T08:45:17.639Z,17.50
2024-05-09T08:47:41.160Z,17.87
2024-05-09T08:48:45.689Z,17.65
2024-05-09T08:51:08.896Z,18.01
2024-05-09T08:52:10.618Z,18.06
2024-05-09T08:54:34.664Z,17.94
2024-05-09T08:55:40.704Z,18.30
2024-05-09T08:58:07.189Z,18.20
2024-05-09T08:59:13.413Z,18.43
2024-05-09T09:01:37.832Z,17.59
2024-05-09T09:02:40.053Z,17.88
2024-05-09T09:05:03.109Z,16.85
2024-05-09T09:06:14.491Z,17.05
2024-05-09T09:08:25.868Z,17.56
2024-05-09T09:09:27.934Z,17.93
2024-05-09T09:11:40.171Z,18.05
2024-05-09T09:13:49.689Z,18.46
2024-05-09T09:15:59.294Z,18.32
2024-05-09T09:17:11.611Z,18.62
2024-05-09T09:19:26.585Z,18.74
2024-05-09T09:20:35.661Z,19.03
2024-05-09T09:22:49.967Z,18.57
2024-05-09T09:23:51.522Z,18.87
2024-05-09T09:26:00.326Z,19.09
2024-05-09T09:27:01.934Z,19.34
2024-05-09T09:29:08.171Z,19.27
2024-05-09T09:30:22.921Z,19.44
2024-05-09T09:31:31.471Z,19.50
2024-05-09T09:35:01.234Z,18.42
2024-05-09T09:38:36.811Z,17.91
2024-05-09T09:39:39.978Z,18.52
2024-05-09T09:41:47.747Z,18.74
2024-05-09T09:42:50.168Z,19.20
2024-05-09T09:43:53.547Z,19.24
2024-05-09T09:45:04.329Z,18.80
2024-05-09T09:46:11.775Z,18.74
2024-05-09T09:47:16.345Z,18.17
2024-05-09T09:48:20.016Z,18.18
2024-05-09T09:49:23.973Z,18.75
2024-05-09T09:50:33.331Z,19.23
2024-05-09T09:51:36.944Z,18.74
2024-05-09T09:52:38.872Z,18.73
2024-05-09T09:53:42.478Z,18.89
2024-05-09T09:54:45.093Z,18.61
2024-05-09T09:56:52.343Z,17.95
2024-05-09T09:57:56.178Z,18.38
2024-05-09T09:59:00.070Z,18.43
2024-05-09T10:00:01.727Z,19.00
2024-05-09T10:01:03.381Z,19.38
2024-05-09T10:02:05.447Z,19.67
2024-05-09T10:03:07.219Z,19.83
2024-05-09T10:04:09.768Z,19.70
2024-05-09T10:05:11.769Z,19.77
2024-05-09T10:06:14.144Z,19.24
2024-05-09T10:07:18.504Z,18.79
2024-05-09T10:08:23.795Z,18.91
2024-05-09T10:09:25.952Z,18.90
2024-05-09T10:10:32.370Z,19.37
2024-05-09T10:11:39.558Z,19.37
2024-05-09T10:13:03.206Z,19.04
2024-05-09T10:14:07.355Z,19.08
2024-05-09T10:15:09.794Z,19.24
2024-05-09T10:16:12.055Z,19.67
2024-05-09T10:17:14.111Z,20.11
2024-05-09T10:18:15.993Z,20.59
2024-05-09T10:19:27.972Z,20.29
2024-05-09T10:20:40.010Z,19.75
2024-05-09T10:21:46.522Z,19.84
2024-05-09T10:22:50.378Z,19.42
2024-05-09T10:24:05.147Z,19.13
2024-05-09T10:25:07.484Z,19.94
2024-05-09T10:26:09.079Z,19.73
2024-05-09T10:27:10.608Z,19.66
2024-05-09T10:28:12.519Z,19.79
2024-05-09T10:29:16.041Z,18.66
2024-05-09T10:30:29.724Z,18.55
2024-05-09T10:31:39.291Z,19.73
2024-05-09T10:32:41.087Z,19.83
2024-05-09T10:33:48.748Z,19.73
2024-05-09T10:35:15.090Z,20.92
2024-05-09T10:36:21.412Z,21.00
2024-05-09T10:37:23.176Z,21.57
2024-05-09T10:38:24.947Z,20.35
2024-05-09T10:39:34.581Z,20.25
2024-05-09T10:40:37.764Z,19.92
2024-05-09T10:41:39.759Z,19.64
2024-05-09T10:42:41.941Z,19.47
2024-05-09T10:43:43.745Z,19.41
2024-05-09T10:44:45.298Z,19.31
2024-05-09T10:45:46.861Z,19.58
2024-05-09T10:46:50.247Z,20.32
2024-05-09T10:47:52.037Z,21.03
2024-05-09T10:48:53.990Z,21.46
2024-05-09T10:49:56.139Z,21.59
2024-05-09T10:50:57.684Z,21.96
2024-05-09T10:51:59.212Z,22.01
2024-05-09T10:53:02.463Z,22.23
2024-05-09T10:54:03.998Z,21.45
2024-05-09T10:55:06.256Z,20.78
2024-05-09T10:56:07.916Z,20.93
2024-05-09T10:57:09.423Z,21.30
2024-05-09T10:58:18.007Z,21.26
2024-05-09T10:59:19.712Z,21.30
2024-05-09T11:00:27.666Z,21.48
2024-05-09T11:01:35.374Z,21.16
2024-05-09T11:02:37.257Z,20.63
2024-05-09T11:03:40.115Z,20.36
2024-05-09T11:04:42.220Z,20.31
2024-05-09T11:05:44.351Z,20.14
2024-05-09T11:06:46.918Z,19.81
2024-05-09T11:07:48.671Z,19.47
2024-05-09T11:08:51.016Z,18.49
2024-05-09T11:09:53.271Z,19.19
2024-05-09T11:10:56.125Z,19.53
2024-05-09T11:11:58.148Z,19.51
2024-05-09T11:12:59.810Z,18.57
2024-05-09T11:14:12.028Z,18.44
2024-05-09T11:15:14.737Z,18.85
2024-05-09T11:16:21.895Z,19.29
2024-05-09T11:17:23.612Z,19.71
2024-05-09T11:18:30.658Z,20.20
2024-05-09T11:19:38.406Z,20.63
2024-05-09T11:20:40.158Z,20.34
2024-05-09T11:21:41.912Z,20.56
2024-05-09T11:22:43.491Z,20.01
2024-05-09T11:23:45.233Z,20.39
2024-05-09T11:24:47.038Z,20.23
2024-05-09T11:25:52.711Z,20.36
2024-05-09T11:26:54.236Z,20.23
2024-05-09T11:28:01.311Z,20.31
2024-05-09T11:29:02.945Z,20.41
2024-05-09T11:30:07.253Z,20.28
2024-05-09T11:31:10.294Z,19.71
2024-05-09T11:32:13.652Z,19.97
2024-05-09T11:33:16.943Z,20.33
2024-05-09T11:34:18.756Z,20.52
2024-05-09T11:35:20.716Z,20.68
2024-05-09T11:36:22.226Z,21.36
2024-05-09T11:37:23.911Z,21.87
2024-05-09T11:38:25.469Z,22.32
2024-05-09T11:39:27.451Z,22.92
2024-05-09T11:40:34.187Z,23.21
2024-05-09T11:41:36.346Z,23.20
2024-05-09T11:42:37.943Z,22.56
2024-05-09T11:43:39.511Z,23.27
2024-05-09T11:44:41.050Z,23.47
2024-05-09T11:45:42.647Z,23.85
2024-05-09T11:46:44.195Z,23.55
2024-05-09T11:47:46.178Z,23.35
2024-05-09T11:48:48.224Z,22.67
2024-05-09T11:49:49.975Z,21.79
2024-05-09T11:50:51.565Z,21.35
2024-05-09T11:51:53.153Z,21.52
2024-05-09T11:52:54.939Z,21.62
2024-05-09T11:53:56.511Z,21.52
2024-05-09T11:54:58.614Z,22.20
2024-05-09T11:56:00.291Z,22.52
2024-05-09T11:57:01.850Z,22.73
2024-05-09T11:58:04.387Z,22.32
2024-05-09T11:59:05.973Z,22.58
2024-05-09T12:00:11.863Z,22.61
2024-05-09T12:01:13.540Z,22.59
2024-05-09T12:02:15.220Z,23.07
2024-05-09T12:03:16.976Z,23.60
2024-05-09T12:04:18.935Z,23.92
2024-05-09T12:05:20.927Z,24.09
2024-05-09T12:06:22.774Z,24.58
2024-05-09T12:07:24.434Z,24.27
2024-05-09T12:08:26.071Z,24.13
2024-05-09T12:09:27.752Z,24.22
2024-05-09T12:10:33.739Z,24.73
2024-05-09T12:11:37.255Z,24.71
2024-05-09T12:12:38.824Z,23.58
2024-05-09T12:13:40.339Z,21.43
2024-05-09T12:14:42.436Z,21.99
2024-05-09T12:15:44.028Z,22.20
2024-05-09T12:16:45.633Z,21.54
2024-05-09T12:17:50.455Z,21.99
2024-05-09T12:18:52.332Z,22.17
2024-05-09T12:19:53.937Z,22.20
2024-05-09T12:20:55.431Z,22.28
2024-05-09T12:21:57.034Z,22.85
2024-05-09T12:22:58.775Z,23.67
2024-05-09T12:24:00.252Z,23.90
2024-05-09T12:25:04.778Z,24.40
2024-05-09T12:26:06.399Z,24.43
2024-05-09T12:27:07.907Z,23.35
2024-05-09T12:28:09.503Z,21.48
2024-05-09T12:29:11.114Z,22.45
2024-05-09T12:30:20.692Z,22.50
2024-05-09T12:31:29.984Z,22.73
2024-05-09T12:32:31.654Z,23.89
2024-05-09T12:33:33.310Z,23.30
2024-05-09T12:34:34.961Z,22.66
2024-05-09T12:35:36.564Z,21.90
2024-05-09T12:36:38.266Z,22.95
2024-05-09T12:37:39.916Z,23.43
2024-05-09T12:38:41.699Z,23.22
2024-05-09T12:39:43.542Z,23.43
2024-05-09T12:40:45.189Z,23.31
2024-05-09T12:41:46.800Z,23.58
2024-05-09T12:42:49.601Z,24.18
2024-05-09T12:43:51.132Z,24.70
2024-05-09T12:44:52.817Z,24.96
2024-05-09T12:45:54.438Z,25.13
2024-05-09T12:46:55.948Z,25.46
2024-05-09T12:47:57.662Z,24.55
2024-05-09T12:48:59.394Z,24.73
2024-05-09T12:50:01.145Z,22.69
2024-05-09T12:51:02.773Z,23.99
2024-05-09T12:52:04.689Z,24.15
2024-05-09T12:53:06.485Z,24.95
2024-05-09T12:54:08.063Z,25.21
2024-05-09T12:55:11.021Z,25.51
2024-05-09T12:56:12.817Z,24.96
2024-05-09T12:57:14.318Z,23.52
2024-05-09T12:58:17.148Z,21.48
2024-05-09T12:59:19.129Z,21.17
2024-05-09T13:00:27.736Z,22.14
2024-05-09T13:01:33.573Z,23.86
2024-05-09T13:02:35.376Z,24.48
2024-05-09T13:03:37.227Z,24.18
2024-05-09T13:04:38.893Z,24.76
2024-05-09T13:05:44.908Z,23.99
2024-05-09T13:06:46.991Z,24.07
2024-05-09T13:07:48.482Z,24.90
2024-05-09T13:08:50.038Z,25.44
2024-05-09T13:09:51.572Z,25.18
2024-05-09T13:10:53.544Z,25.96
2024-05-09T13:11:55.195Z,26.07
2024-05-09T13:12:56.734Z,25.36
2024-05-09T13:13:58.263Z,26.07
2024-05-09T13:14:59.898Z,26.98
2024-05-09T13:16:01.495Z,25.48
2024-05-09T13:17:03.203Z,23.93
2024-05-09T13:18:05.907Z,22.27
2024-05-09T13:19:08.241Z,22.77
2024-05-09T13:20:18.531Z,23.54
2024-05-09T13:21:24.520Z,23.72
2024-05-09T13:22:26.017Z,23.63
2024-05-09T13:23:27.681Z,24.07
2024-05-09T13:24:29.208Z,23.19
2024-05-09T13:25:31.006Z,21.47
2024-05-09T13:26:32.753Z,20.91
2024-05-09T13:27:34.377Z,19.93
2024-05-09T13:28:35.921Z,20.48
2024-05-09T13:29:39.704Z,22.34
2024-05-09T13:30:42.826Z,23.72
2024-05-09T13:31:44.429Z,24.45
2024-05-09T13:32:45.982Z,24.71
2024-05-09T13:33:47.828Z,24.84
2024-05-09T13:34:49.573Z,22.32
2024-05-09T13:35:51.353Z,21.31
2024-05-09T13:36:53.506Z,21.38
2024-05-09T13:37:55.095Z,21.96
2024-05-09T13:38:57.207Z,23.24
2024-05-09T13:40:00.132Z,23.98
2024-05-09T13:41:01.652Z,23.55
2024-05-09T13:42:03.303Z,23.22
2024-05-09T13:43:05.445Z,22.09
2024-05-09T13:44:07.088Z,21.94
2024-05-09T13:45:08.662Z,22.00
2024-05-09T13:46:10.444Z,22.04
2024-05-09T13:47:12.445Z,22.77
2024-05-09T13:48:14.373Z,22.93
2024-05-09T13:49:17.536Z,21.24
2024-05-09T13:50:28.012Z,20.49
2024-05-09T13:51:35.248Z,20.33
2024-05-09T13:52:36.870Z,20.88
2024-05-09T13:53:38.406Z,21.41
2024-05-09T13:54:39.930Z,21.80
2024-05-09T13:55:41.634Z,22.08
2024-05-09T13:56:43.176Z,22.76
2024-05-09T13:57:44.883Z,22.90
2024-05-09T13:58:46.585Z,23.84
2024-05-09T13:59:48.118Z,22.90
2024-05-09T14:00:49.864Z,23.60
2024-05-09T14:01:52.266Z,24.18
2024-05-09T14:02:54.367Z,24.59
2024-05-09T14:03:56.134Z,25.05
2024-05-09T14:04:58.296Z,25.12
2024-05-09T14:06:00.208Z,24.52
2024-05-09T14:07:01.949Z,25.10
2024-05-09T14:08:03.723Z,25.82
2024-05-09T14:09:05.302Z,23.99
2024-05-09T14:10:16.085Z,23.47
2024-05-09T14:11:24.804Z,23.20
2024-05-09T14:12:26.390Z,23.90
2024-05-09T14:13:27.960Z,24.05
2024-05-09T14:14:29.486Z,22.69
2024-05-09T14:15:30.984Z,22.46
2024-05-09T14:16:33.256Z,23.81
2024-05-09T14:17:35.100Z,24.58
2024-05-09T14:18:36.873Z,24.54
2024-05-09T14:19:38.425Z,24.74
2024-05-09T14:20:39.952Z,23.91
2024-05-09T14:21:41.471Z,22.78
2024-05-09T14:22:42.988Z,24.16
2024-05-09T14:23:44.487Z,24.82
2024-05-09T14:24:46.039Z,25.12
2024-05-09T14:25:51.284Z,23.21
2024-05-09T14:26:53.897Z,24.52
2024-05-09T14:27:59.453Z,25.00
2024-05-09T14:29:01.098Z,25.79
2024-05-09T14:30:04.138Z,23.96
2024-05-09T14:31:07.226Z,24.64
2024-05-09T14:32:08.732Z,24.66
2024-05-09T14:33:11.105Z,24.31
2024-05-09T14:34:12.970Z,24.39
2024-05-09T14:35:15.236Z,23.83
2024-05-09T14:36:16.807Z,23.64
2024-05-09T14:37:18.356Z,23.41
2024-05-09T14:38:19.864Z,22.65
2024-05-09T14:39:21.404Z,22.72
2024-05-09T14:40:35.878Z,22.80
2024-05-09T14:41:42.560Z,22.78
2024-05-09T14:42:44.063Z,22.94
2024-05-09T14:43:45.772Z,22.99
2024-05-09T14:44:47.285Z,23.26
2024-05-09T14:45:48.827Z,23.99
2024-05-09T14:46:50.537Z,24.31
2024-05-09T14:47:52.238Z,24.73
2024-05-09T14:48:53.867Z,24.68
2024-05-09T14:49:55.632Z,24.85
2024-05-09T14:50:57.172Z,25.41
2024-05-09T14:51:58.690Z,24.72
2024-05-09T14:53:00.347Z,24.50
2024-05-09T14:54:01.848Z,25.19
2024-05-09T14:55:03.508Z,25.03
2024-05-09T14:56:05.615Z,24.89
2024-05-09T14:57:07.207Z,23.52
2024-05-09T14:58:10.502Z,22.75
2024-05-09T14:59:12.247Z,23.21
2024-05-09T15:00:21.106Z,22.90
2024-05-09T15:01:28.061Z,23.46
2024-05-09T15:02:29.766Z,24.02
2024-05-09T15:03:31.372Z,24.44
2024-05-09T15:04:33.017Z,23.88
2024-05-09T15:05:34.763Z,24.44
2024-05-09T15:06:38.292Z,24.16
2024-05-09T15:07:43.511Z,23.46
2024-05-09T15:08:45.064Z,22.46
2024-05-09T15:09:47.169Z,23.53
2024-05-09T15:10:51.785Z,24.75
2024-05-09T15:11:53.885Z,25.34
2024-05-09T15:12:55.601Z,25.62
2024-05-09T15:13:57.123Z,25.16
2024-05-09T15:14:58.665Z,25.31
2024-05-09T15:16:00.537Z,25.04
2024-05-09T15:17:02.607Z,25.30
2024-05-09T15:18:05.315Z,25.49
2024-05-09T15:19:08.458Z,23.98
2024-05-09T15:20:16.858Z,22.81
2024-05-09T15:21:19.080Z,22.24
2024-05-09T15:22:20.662Z,23.60
2024-05-09T15:23:22.199Z,23.22
2024-05-09T15:24:23.742Z,22.06
2024-05-09T15:25:25.283Z,21.67
2024-05-09T15:26:26.978Z,21.40
2024-05-09T15:27:28.537Z,20.82
2024-05-09T15:28:30.214Z,21.15
2024-05-09T15:29:32.093Z,22.34
2024-05-09T15:30:34.735Z,23.76
2024-05-09T15:31:36.683Z,24.39
2024-05-09T15:32:38.316Z,24.69
2024-05-09T15:33:41.749Z,23.44
2024-05-09T15:34:43.337Z,22.02
2024-05-09T15:35:46.683Z,22.76
2024-05-09T15:36:51.115Z,23.73
2024-05-09T15:37:52.756Z,23.85
2024-05-09T15:38:55.537Z,23.14
2024-05-09T15:39:57.139Z,23.83
2024-05-09T15:40:59.103Z,24.42
2024-05-09T15:42:00.666Z,23.51
2024-05-09T15:43:02.565Z,23.74
2024-05-09T15:44:04.372Z,24.60
2024-05-09T15:45:06.269Z,24.69
2024-05-09T15:46:07.877Z,24.54
2024-05-09T15:47:09.570Z,24.57
2024-05-09T15:48:11.735Z,24.91
2024-05-09T15:49:13.647Z,24.50
2024-05-09T15:50:20.603Z,25.00
2024-05-09T15:51:30.148Z,25.04
2024-05-09T15:52:31.789Z,25.17
2024-05-09T15:53:33.381Z,25.30
2024-05-09T15:54:34.943Z,25.40
2024-05-09T15:55:36.552Z,24.12
2024-05-09T15:56:39.082Z,22.25
2024-05-09T15:57:40.846Z,23.16
2024-05-09T15:58:42.913Z,23.93
2024-05-09T15:59:44.451Z,24.35
2024-05-09T16:00:47.917Z,24.56
2024-05-09T16:01:51.503Z,22.82
2024-05-09T16:02:53.134Z,23.22
2024-05-09T16:03:54.788Z,22.45
2024-05-09T16:04:56.465Z,23.23
2024-05-09T16:05:58.864Z,23.93
2024-05-09T16:07:00.467Z,23.93
2024-05-09T16:08:02.469Z,23.58
2024-05-09T16:09:04.563Z,23.93
2024-05-09T16:10:07.120Z,23.93
2024-05-09T16:11:08.961Z,23.74
2024-05-09T16:12:10.728Z,23.88
2024-05-09T16:13:12.644Z,24.27
2024-05-09T16:14:16.057Z,24.07
2024-05-09T16:15:17.593Z,23.97
2024-05-09T16:16:19.539Z,23.54
2024-05-09T16:17:21.238Z,22.97
2024-05-09T16:18:23.139Z,22.92
2024-05-09T16:19:24.967Z,22.89
2024-05-09T16:20:34.954Z,22.90
2024-05-09T16:21:41.436Z,22.73
2024-05-09T16:22:43.934Z,22.72
2024-05-09T16:23:45.461Z,23.06
2024-05-09T16:24:47.113Z,23.39
2024-05-09T16:25:48.852Z,23.47
2024-05-09T16:26:50.412Z,23.63
2024-05-09T16:27:52.097Z,23.21
2024-05-09T16:28:53.742Z,23.66
2024-05-09T16:29:58.065Z,23.69
2024-05-09T16:31:01.415Z,23.89
2024-05-09T16:32:03.140Z,23.61
2024-05-09T16:33:05.789Z,23.54
2024-05-09T16:34:08.017Z,23.36
2024-05-09T16:35:09.931Z,23.52
2024-05-09T16:36:11.518Z,23.54
2024-05-09T16:37:13.347Z,23.54
2024-05-09T16:38:15.151Z,23.57
2024-05-09T16:39:16.738Z,23.53
2024-05-09T16:40:25.671Z,23.50
2024-05-09T16:41:36.517Z,23.38
2024-05-09T16:42:38.088Z,22.66
2024-05-09T16:43:39.581Z,22.88
2024-05-09T16:44:41.122Z,22.97
2024-05-09T16:45:44.711Z,22.77
2024-05-09T16:46:46.529Z,22.80
2024-05-09T16:47:48.232Z,23.01
2024-05-09T16:48:50.744Z,22.69
2024-05-09T16:49:52.333Z,22.21
2024-05-09T16:50:53.819Z,22.17
2024-05-09T16:51:55.367Z,21.98
2024-05-09T16:52:57.073Z,22.11
2024-05-09T16:53:58.567Z,21.77
2024-05-09T16:55:00.137Z,21.70
2024-05-09T16:56:02.563Z,21.24
2024-05-09T16:57:04.334Z,21.36
2024-05-09T16:58:09.187Z,21.34
2024-05-09T16:59:10.972Z,21.25
2024-05-09T17:00:18.337Z,20.92
2024-05-09T17:01:28.604Z,20.91
2024-05-09T17:02:30.909Z,20.97
2024-05-09T17:03:32.763Z,20.88
2024-05-09T17:04:34.474Z,20.84
2024-05-09T17:05:36.733Z,20.75
2024-05-09T17:06:38.884Z,20.66
2024-05-09T17:07:41.169Z,20.34
2024-05-09T17:08:43.774Z,19.80
2024-05-09T17:09:45.471Z,20.17
2024-05-09T17:10:50.713Z,20.19
2024-05-09T17:11:52.453Z,20.23
2024-05-09T17:12:53.999Z,20.19
2024-05-09T17:13:55.491Z,20.14
2024-05-09T17:14:57.008Z,19.85
2024-05-09T17:15:58.686Z,19.75
2024-05-09T17:17:00.317Z,19.85
2024-05-09T17:26:32.354Z,19.40
2024-05-09T17:27:33.977Z,19.17
2024-05-09T17:35:07.684Z,18.75
2024-05-09T17:41:53.866Z,18.27
2024-05-09T17:48:06.458Z,18.05
2024-05-09T17:54:54.213Z,17.73
